Time;durP1;ratioP1;P1;durP2;ratioP2;P2;SDS_P1;SDS_P2;PMS_P1;PMS_P2;Temp;Humidity;BMP_temperature;BMP_pressure;BME280_temperature;BME280_humidity;BME280_pressure;Samples;Min_cycle;Max_cycle;Signal;HPM_P1;HPM_P2
2022/12/14 00:00:50;;;;;;;79.07;46.33;;;;;;;;;;5070915;28;20710;-78
2022/12/14 00:03:16;;;;;;;83.80;45.13;;;;;;;;;;5068843;28;20195;-79
2022/12/14 00:05:42;;;;;;;79.43;45.47;;;;;;;;;;5055671;28;20181;-78
2022/12/14 00:08:09;;;;;;;89.50;47.70;;;;;;;;;;5064870;28;20174;-79
2022/12/14 00:10:36;;;;;;;80.90;45.07;;;;;;;;;;5073750;28;20189;-79
2022/12/14 00:13:02;;;;;;;82.70;46.13;;;;;;;;;;5058898;28;20185;-78
2022/12/14 00:15:28;;;;;;;84.47;44.10;;;;;;;;;;5065439;28;20188;-79
2022/12/14 00:17:54;;;;;;;74.23;42.03;;;;;;;;;;5055456;28;20670;-79
2022/12/14 00:20:20;;;;;;;76.67;43.87;;;;;;;;;;5066574;28;20177;-78
2022/12/14 00:22:46;;;;;;;84.67;44.27;;;;;;;;;;5059142;28;20244;-79
2022/12/14 00:25:13;;;;;;;84.20;46.30;;;;;;;;;;5062819;28;20200;-78
2022/12/14 00:27:45;;;;;;;78.67;44.77;;;;;;;;;;5063530;28;20204;-79
2022/12/14 00:30:12;;;;;;;88.10;48.50;;;;;;;;;;5059727;28;20192;-79
2022/12/14 00:32:39;;;;;;;79.93;45.00;;;;;;;;;;5056673;28;20213;-79
2022/12/14 00:35:06;;;;;;;85.30;44.90;;;;;;;;;;5056054;28;20312;-79
2022/12/14 00:37:32;;;;;;;79.50;45.43;;;;;;;;;;5059083;28;20252;-79
2022/12/14 00:39:58;;;;;;;73.47;41.97;;;;;;;;;;5064761;28;20181;-78
2022/12/14 00:42:24;;;;;;;77.07;43.77;;;;;;;;;;5065272;28;20235;-78
2022/12/14 00:44:50;;;;;;;73.00;42.07;;;;;;;;;;5054794;28;20713;-78
2022/12/14 00:47:16;;;;;;;79.67;43.63;;;;;;;;;;5052373;28;20182;-78
2022/12/14 00:49:42;;;;;;;80.17;44.87;;;;;;;;;;5070929;28;20174;-79
2022/12/14 00:52:08;;;;;;;86.33;45.83;;;;;;;;;;5066543;28;20661;-78
2022/12/14 00:54:34;;;;;;;87.33;46.73;;;;;;;;;;5066019;28;20186;-78
2022/12/14 00:57:00;;;;;;;86.70;44.57;;;;;;;;;;5056101;28;20273;-78
2022/12/14 00:59:26;;;;;;;80.43;43.13;;;;;;;;;;5067927;28;20251;-78
2022/12/14 01:01:52;;;;;;;82.57;43.73;;;;;;;;;;5058098;28;20177;-78
2022/12/14 01:04:18;;;;;;;76.57;40.93;;;;;;;;;;5058903;28;20642;-79
2022/12/14 01:06:45;;;;;;;74.77;43.07;;;;;;;;;;5058634;28;20182;-78
2022/12/14 01:09:11;;;;;;;80.00;45.03;;;;;;;;;;5054244;28;20192;-79
2022/12/14 01:11:37;;;;;;;74.07;42.73;;;;;;;;;;5052885;28;20221;-78
2022/12/14 01:14:04;;;;;;;69.77;39.90;;;;;;;;;;5077000;28;20640;-79
2022/12/14 01:16:30;;;;;;;71.77;40.27;;;;;;;;;;5071115;28;20219;-78
2022/12/14 01:18:58;;;;;;;65.73;38.53;;;;;;;;;;5068970;28;20580;-79
2022/12/14 01:21:24;;;;;;;60.27;36.83;;;;;;;;;;5067353;28;20713;-79
2022/12/14 01:23:51;;;;;;;65.43;37.20;;;;;;;;;;5069625;28;20185;-79
2022/12/14 01:26:18;;;;;;;63.60;35.87;;;;;;;;;;5069737;28;20635;-78
2022/12/14 01:28:45;;;;;;;59.90;35.83;;;;;;;;;;5070829;28;20215;-78
2022/12/14 01:31:15;;;;;;;63.17;35.97;;;;;;;;;;5063089;28;20269;-79
2022/12/14 01:33:41;;;;;;;63.03;35.30;;;;;;;;;;5068861;28;20188;-78
2022/12/14 01:36:15;;;;;;;64.73;38.73;;;;;;;;;;5069395;28;20274;-78
2022/12/14 01:38:41;;;;;;;65.10;37.80;;;;;;;;;;5067866;28;20291;-78
2022/12/14 01:41:08;;;;;;;68.33;38.00;;;;;;;;;;5054443;28;20306;-78
2022/12/14 01:43:49;;;;;;;67.60;37.20;;;;;;;;;;5054857;28;20177;-78
2022/12/14 01:46:17;;;;;;;72.73;40.27;;;;;;;;;;5056311;28;20215;-78
2022/12/14 01:48:44;;;;;;;72.07;39.10;;;;;;;;;;5053404;28;20650;-78
2022/12/14 01:54:14;;;;;;;72.00;38.00;;;;;;;;;;5064904;28;20225;-79
2022/12/14 01:56:42;;;;;;;65.10;38.10;;;;;;;;;;5051654;28;20180;-78
2022/12/14 01:59:13;;;;;;;74.17;38.90;;;;;;;;;;5055958;28;20204;-78
2022/12/14 02:01:40;;;;;;;69.83;39.07;;;;;;;;;;5068401;28;20526;-79
2022/12/14 02:04:06;;;;;;;70.37;38.00;;;;;;;;;;5064355;28;20538;-78
2022/12/14 02:06:35;;;;;;;65.30;37.17;;;;;;;;;;5054313;28;20199;-78
2022/12/14 02:09:02;;;;;;;69.13;39.90;;;;;;;;;;5067763;28;20551;-78
2022/12/14 02:11:32;;;;;;;72.63;39.53;;;;;;;;;;5066300;28;20181;-78
2022/12/14 02:13:58;;;;;;;73.70;40.50;;;;;;;;;;5059388;28;20177;-78
2022/12/14 02:16:24;;;;;;;74.53;39.63;;;;;;;;;;5071052;28;20271;-77
2022/12/14 02:18:50;;;;;;;72.57;39.87;;;;;;;;;;5069173;28;20546;-78
2022/12/14 02:21:35;;;;;;;78.00;39.97;;;;;;;;;;5065803;28;20272;-78
2022/12/14 02:24:20;;;;;;;73.27;37.33;;;;;;;;;;5054920;28;20186;-78
2022/12/14 02:27:04;;;;;;;78.10;39.73;;;;;;;;;;5064686;28;20205;-78
2022/12/14 02:29:39;;;;;;;66.93;35.23;;;;;;;;;;5070037;28;20180;-78
2022/12/14 02:32:24;;;;;;;72.63;38.20;;;;;;;;;;5084877;28;20603;-78
2022/12/14 02:35:03;;;;;;;66.27;36.93;;;;;;;;;;5052774;28;20739;-77
2022/12/14 02:37:28;;;;;;;73.33;39.70;;;;;;;;;;5055452;28;20210;-78
2022/12/14 02:40:07;;;;;;;72.93;39.60;;;;;;;;;;5061782;28;20651;-78
2022/12/14 02:42:49;;;;;;;72.47;38.83;;;;;;;;;;5065831;28;20224;-77
2022/12/14 02:45:22;;;;;;;73.13;39.17;;;;;;;;;;5066079;28;20271;-78
2022/12/14 02:47:53;;;;;;;80.17;39.90;;;;;;;;;;5050741;28;20211;-78
2022/12/14 02:50:32;;;;;;;70.10;38.07;;;;;;;;;;5070627;28;20656;-78
2022/12/14 02:53:02;;;;;;;68.63;37.43;;;;;;;;;;5066912;28;20208;-78
2022/12/14 02:55:31;;;;;;;76.50;37.37;;;;;;;;;;5060237;28;20265;-78
2022/12/14 02:58:00;;;;;;;69.90;37.83;;;;;;;;;;5061497;28;20307;-78
2022/12/14 03:00:28;;;;;;;72.07;37.50;;;;;;;;;;5064946;28;20187;-78
2022/12/14 03:02:54;;;;;;;71.53;37.13;;;;;;;;;;5067756;28;20775;-78
2022/12/14 03:05:21;;;;;;;70.93;38.00;;;;;;;;;;5059035;28;20659;-78
2022/12/14 03:07:50;;;;;;;66.20;35.63;;;;;;;;;;5064359;28;20193;-78
2022/12/14 03:10:27;;;;;;;73.30;39.07;;;;;;;;;;5060582;28;20650;-78
2022/12/14 03:12:55;;;;;;;69.87;38.80;;;;;;;;;;5058466;28;20287;-78
2022/12/14 03:15:23;;;;;;;61.10;37.23;;;;;;;;;;5077828;28;20188;-78
2022/12/14 03:17:51;;;;;;;69.17;37.53;;;;;;;;;;5070068;28;20220;-78
2022/12/14 03:20:22;;;;;;;71.37;38.60;;;;;;;;;;5056681;28;20259;-78
2022/12/14 03:22:54;;;;;;;67.90;36.73;;;;;;;;;;5072842;28;20187;-78
2022/12/14 03:25:24;;;;;;;79.73;40.23;;;;;;;;;;5071963;28;20542;-78
2022/12/14 03:27:53;;;;;;;69.90;37.23;;;;;;;;;;5068786;28;20192;-78
2022/12/14 03:30:19;;;;;;;69.57;37.87;;;;;;;;;;5058525;28;20650;-78
2022/12/14 03:32:50;;;;;;;70.47;37.17;;;;;;;;;;5071782;28;20182;-78
2022/12/14 03:35:24;;;;;;;69.23;38.47;;;;;;;;;;5082471;28;20235;-78
2022/12/14 03:37:54;;;;;;;76.20;37.80;;;;;;;;;;5060894;28;20243;-78
2022/12/14 03:40:24;;;;;;;71.50;38.67;;;;;;;;;;5060314;28;20257;-78
2022/12/14 03:42:56;;;;;;;65.63;36.80;;;;;;;;;;5068472;28;20183;-78
2022/12/14 03:45:41;;;;;;;73.87;38.33;;;;;;;;;;5071571;28;20175;-78
2022/12/14 03:48:07;;;;;;;68.10;35.77;;;;;;;;;;5061058;28;20215;-78
2022/12/14 03:50:39;;;;;;;71.33;38.10;;;;;;;;;;5065392;28;20191;-78
2022/12/14 03:53:17;;;;;;;71.53;39.23;;;;;;;;;;5059949;28;20180;-78
2022/12/14 03:55:42;;;;;;;68.53;37.33;;;;;;;;;;5069509;28;20189;-78
2022/12/14 03:58:26;;;;;;;70.97;37.97;;;;;;;;;;5071347;28;20253;-78
2022/12/14 04:00:52;;;;;;;77.03;37.90;;;;;;;;;;5068386;28;20183;-78
2022/12/14 04:03:22;;;;;;;68.97;38.60;;;;;;;;;;5057217;28;20180;-78
2022/12/14 04:05:48;;;;;;;67.37;37.97;;;;;;;;;;5063989;28;20171;-78
2022/12/14 04:08:33;;;;;;;74.97;39.77;;;;;;;;;;5058416;28;20187;-78
2022/12/14 04:19:28;;;;;;;82.23;42.57;;;;;;;;;;5056778;28;20632;-78
2022/12/14 04:22:06;;;;;;;88.90;44.33;;;;;;;;;;5066645;28;20620;-78
2022/12/14 04:27:31;;;;;;;89.17;45.17;;;;;;;;;;5056180;28;20259;-78
2022/12/14 04:30:00;;;;;;;96.20;46.97;;;;;;;;;;5066717;28;20199;-78
2022/12/14 04:32:29;;;;;;;89.17;46.40;;;;;;;;;;5067600;28;20191;-78
2022/12/14 04:35:13;;;;;;;91.90;46.47;;;;;;;;;;5070615;28;20223;-78
2022/12/14 04:37:41;;;;;;;85.87;44.57;;;;;;;;;;5070185;28;20240;-78
2022/12/14 04:40:10;;;;;;;95.60;45.90;;;;;;;;;;5071502;28;20222;-78
2022/12/14 04:42:40;;;;;;;82.73;44.47;;;;;;;;;;5067401;28;20190;-77
2022/12/14 04:45:10;;;;;;;89.27;46.03;;;;;;;;;;5070469;28;20181;-78
2022/12/14 04:47:41;;;;;;;91.33;47.47;;;;;;;;;;5067496;28;20192;-78
2022/12/14 04:50:14;;;;;;;83.57;44.10;;;;;;;;;;5057110;28;20179;-78
2022/12/14 04:52:43;;;;;;;80.43;43.50;;;;;;;;;;5054080;28;20182;-79
2022/12/14 04:55:17;;;;;;;82.10;43.63;;;;;;;;;;5057168;28;20229;-78
2022/12/14 04:57:48;;;;;;;87.73;43.73;;;;;;;;;;5064669;28;20704;-78
2022/12/14 05:00:14;;;;;;;88.43;45.63;;;;;;;;;;5054833;28;20203;-78
2022/12/14 05:02:55;;;;;;;83.60;45.57;;;;;;;;;;5067329;28;20174;-78
2022/12/14 05:05:24;;;;;;;87.57;44.57;;;;;;;;;;5070767;28;20169;-78
2022/12/14 05:07:50;;;;;;;85.43;45.43;;;;;;;;;;5068969;28;20673;-77
2022/12/14 05:10:23;;;;;;;98.77;48.07;;;;;;;;;;5069754;28;20183;-78
2022/12/14 05:13:08;;;;;;;92.73;46.13;;;;;;;;;;5067871;28;20216;-78
2022/12/14 05:15:38;;;;;;;86.77;47.30;;;;;;;;;;5077092;28;20724;-78
2022/12/14 05:18:05;;;;;;;104.03;49.63;;;;;;;;;;5067979;28;20290;-77
2022/12/14 05:20:31;;;;;;;92.33;47.40;;;;;;;;;;5082280;28;20516;-77
2022/12/14 05:22:57;;;;;;;92.90;47.57;;;;;;;;;;5059690;28;20601;-78
2022/12/14 05:25:23;;;;;;;92.17;47.57;;;;;;;;;;5061676;28;20218;-78
2022/12/14 05:27:49;;;;;;;98.03;48.90;;;;;;;;;;5065247;28;20191;-78
2022/12/14 05:30:15;;;;;;;98.80;48.73;;;;;;;;;;5054417;28;20192;-78
2022/12/14 05:32:41;;;;;;;100.70;50.13;;;;;;;;;;5071576;28;20218;-78
2022/12/14 05:35:09;;;;;;;90.20;45.00;;;;;;;;;;5070671;28;20262;-78
2022/12/14 05:37:35;;;;;;;94.53;47.13;;;;;;;;;;5053687;28;20211;-77
2022/12/14 05:40:01;;;;;;;87.00;47.20;;;;;;;;;;5056631;28;20190;-78
2022/12/14 05:42:27;;;;;;;86.13;47.43;;;;;;;;;;5061574;28;20316;-78
2022/12/14 05:44:53;;;;;;;95.73;48.23;;;;;;;;;;5051839;28;20662;-78
2022/12/14 05:47:20;;;;;;;100.40;48.23;;;;;;;;;;5055135;28;20174;-78
2022/12/14 05:49:46;;;;;;;98.40;47.90;;;;;;;;;;5056548;28;20268;-77
2022/12/14 05:52:12;;;;;;;96.97;48.60;;;;;;;;;;5042841;28;20233;-77
2022/12/14 05:54:38;;;;;;;101.87;48.57;;;;;;;;;;5059360;28;20184;-78
2022/12/14 05:57:05;;;;;;;97.73;50.17;;;;;;;;;;5059549;28;20181;-78
2022/12/14 05:59:31;;;;;;;97.77;47.73;;;;;;;;;;5068139;28;20198;-78
2022/12/14 06:01:58;;;;;;;95.70;47.07;;;;;;;;;;5065228;28;20197;-78
2022/12/14 06:04:24;;;;;;;93.73;47.27;;;;;;;;;;5063221;28;20542;-78
2022/12/14 06:06:50;;;;;;;91.43;46.77;;;;;;;;;;5066713;28;20264;-78
2022/12/14 06:09:16;;;;;;;99.97;48.33;;;;;;;;;;5067291;28;20185;-78
2022/12/14 06:11:43;;;;;;;92.60;47.17;;;;;;;;;;5053403;28;20277;-78
2022/12/14 06:14:10;;;;;;;97.97;48.23;;;;;;;;;;5069940;28;20260;-81
2022/12/14 06:16:38;;;;;;;98.80;46.20;;;;;;;;;;5068103;28;20196;-78
2022/12/14 06:19:05;;;;;;;98.87;47.27;;;;;;;;;;5065394;28;20620;-78
2022/12/14 06:21:32;;;;;;;94.20;48.07;;;;;;;;;;5061498;28;20241;-78
2022/12/14 06:23:59;;;;;;;94.90;46.17;;;;;;;;;;5054271;28;20169;-78
2022/12/14 06:26:26;;;;;;;95.17;44.83;;;;;;;;;;5063824;28;20181;-78
2022/12/14 06:28:52;;;;;;;86.63;44.43;;;;;;;;;;5058370;28;20648;-78
2022/12/14 06:31:19;;;;;;;93.00;47.03;;;;;;;;;;5057495;28;20177;-78
2022/12/14 06:33:46;;;;;;;89.63;46.40;;;;;;;;;;5051577;28;20178;-78
2022/12/14 06:36:21;;;;;;;92.43;48.40;;;;;;;;;;5049090;28;20223;-78
2022/12/14 06:38:47;;;;;;;87.47;46.17;;;;;;;;;;5063731;28;20201;-78
2022/12/14 06:41:13;;;;;;;92.07;43.53;;;;;;;;;;5056772;28;20281;-78
2022/12/14 06:43:39;;;;;;;98.40;44.30;;;;;;;;;;5060759;28;20195;-77
2022/12/14 06:46:08;;;;;;;94.00;47.23;;;;;;;;;;5068422;28;20220;-78
2022/12/14 06:48:34;;;;;;;94.33;47.07;;;;;;;;;;5065880;28;20194;-78
2022/12/14 06:51:00;;;;;;;94.63;45.93;;;;;;;;;;5053834;28;20225;-78
2022/12/14 06:53:26;;;;;;;121.70;56.57;;;;;;;;;;5068604;28;20572;-78
2022/12/14 06:55:52;;;;;;;128.70;62.67;;;;;;;;;;5066101;28;20831;-79
2022/12/14 06:58:18;;;;;;;133.47;62.87;;;;;;;;;;5068411;28;20206;-78
2022/12/14 07:00:44;;;;;;;122.57;58.83;;;;;;;;;;5059844;28;20193;-78
2022/12/14 07:03:10;;;;;;;116.33;57.53;;;;;;;;;;5055821;28;20191;-79
2022/12/14 07:05:36;;;;;;;98.43;51.27;;;;;;;;;;5058514;28;20174;-79
2022/12/14 07:08:03;;;;;;;91.97;47.60;;;;;;;;;;5055453;28;20382;-78
2022/12/14 07:10:29;;;;;;;96.67;46.60;;;;;;;;;;5056321;28;20199;-78
2022/12/14 07:12:55;;;;;;;91.23;44.03;;;;;;;;;;5058845;28;20192;-79
2022/12/14 07:15:21;;;;;;;79.90;44.03;;;;;;;;;;5078605;28;20182;-79
2022/12/14 07:17:47;;;;;;;85.97;45.67;;;;;;;;;;5072855;28;20657;-79
2022/12/14 07:20:13;;;;;;;86.57;44.87;;;;;;;;;;5071310;28;20231;-78
2022/12/14 07:22:39;;;;;;;88.23;42.93;;;;;;;;;;5064872;28;20188;-78
2022/12/14 07:25:05;;;;;;;87.40;45.33;;;;;;;;;;5070417;28;20265;-79
2022/12/14 07:27:31;;;;;;;84.67;46.30;;;;;;;;;;5070469;28;20191;-79
2022/12/14 07:29:57;;;;;;;88.97;46.73;;;;;;;;;;5066124;28;20235;-78
2022/12/14 07:32:23;;;;;;;79.97;44.97;;;;;;;;;;5084629;28;20167;-79
2022/12/14 07:34:49;;;;;;;86.77;42.77;;;;;;;;;;5062326;28;20228;-79
2022/12/14 07:37:15;;;;;;;91.60;44.87;;;;;;;;;;5062628;28;20713;-79
2022/12/14 07:39:41;;;;;;;104.37;48.00;;;;;;;;;;5066738;28;20290;-79
2022/12/14 07:42:08;;;;;;;101.77;50.37;;;;;;;;;;5069266;28;20328;-78
2022/12/14 07:44:33;;;;;;;95.53;49.17;;;;;;;;;;5073608;28;20174;-79
2022/12/14 07:46:59;;;;;;;104.73;49.53;;;;;;;;;;5067840;28;20198;-79
2022/12/14 07:49:25;;;;;;;103.47;50.03;;;;;;;;;;5065586;28;20637;-79
2022/12/14 07:51:52;;;;;;;93.87;50.57;;;;;;;;;;5054248;28;20186;-78
2022/12/14 07:54:18;;;;;;;96.63;49.37;;;;;;;;;;5061549;28;20185;-79
2022/12/14 07:56:44;;;;;;;96.53;48.47;;;;;;;;;;5073144;28;20176;-78
2022/12/14 07:59:13;;;;;;;97.70;51.57;;;;;;;;;;5062254;28;20338;-79
2022/12/14 08:01:41;;;;;;;99.30;51.07;;;;;;;;;;5070002;28;20245;-79
2022/12/14 08:04:08;;;;;;;94.23;48.47;;;;;;;;;;5067485;28;20186;-78
2022/12/14 08:06:35;;;;;;;102.30;49.33;;;;;;;;;;5063524;28;20188;-79
2022/12/14 08:09:01;;;;;;;93.53;51.37;;;;;;;;;;5070834;28;20601;-78
2022/12/14 08:11:27;;;;;;;102.93;51.80;;;;;;;;;;5059849;28;20782;-78
2022/12/14 08:13:55;;;;;;;105.47;53.57;;;;;;;;;;5059590;28;20649;-78
2022/12/14 08:16:21;;;;;;;103.97;52.17;;;;;;;;;;5066530;28;20208;-78
2022/12/14 08:18:47;;;;;;;99.77;51.83;;;;;;;;;;5054919;28;20212;-78
2022/12/14 08:21:14;;;;;;;98.00;51.00;;;;;;;;;;5060466;28;20192;-78
2022/12/14 08:23:41;;;;;;;95.50;48.73;;;;;;;;;;5086074;28;20251;-78
2022/12/14 08:26:07;;;;;;;98.23;50.60;;;;;;;;;;5069255;28;20184;-79
2022/12/14 08:28:34;;;;;;;93.70;49.87;;;;;;;;;;5064777;28;20206;-78
2022/12/14 08:31:19;;;;;;;98.27;51.57;;;;;;;;;;5068672;28;20207;-79
2022/12/14 08:33:46;;;;;;;104.53;51.47;;;;;;;;;;5065357;28;20188;-79
2022/12/14 08:36:14;;;;;;;90.07;49.37;;;;;;;;;;5069022;28;20216;-79
2022/12/14 08:38:40;;;;;;;89.63;48.50;;;;;;;;;;5084810;28;20257;-77
2022/12/14 08:41:15;;;;;;;91.83;50.23;;;;;;;;;;5065795;28;20184;-77
2022/12/14 08:43:41;;;;;;;87.13;49.07;;;;;;;;;;5068753;28;20558;-78
2022/12/14 08:46:08;;;;;;;90.10;49.20;;;;;;;;;;5069229;28;20181;-78
2022/12/14 08:48:34;;;;;;;89.43;47.47;;;;;;;;;;5068607;28;20196;-78
2022/12/14 08:51:05;;;;;;;91.07;50.17;;;;;;;;;;5069293;28;20178;-77
2022/12/14 08:53:32;;;;;;;93.20;48.23;;;;;;;;;;5085177;28;20180;-78
2022/12/14 08:55:58;;;;;;;86.77;47.87;;;;;;;;;;5065221;28;20187;-78
2022/12/14 08:58:25;;;;;;;87.37;47.17;;;;;;;;;;5069203;28;20208;-78
2022/12/14 09:00:58;;;;;;;91.23;48.80;;;;;;;;;;5066059;28;20654;-77
2022/12/14 09:03:24;;;;;;;91.57;48.73;;;;;;;;;;5068627;28;20189;-77
2022/12/14 09:05:50;;;;;;;90.87;50.67;;;;;;;;;;5067826;28;20172;-77
2022/12/14 09:08:16;;;;;;;94.83;49.23;;;;;;;;;;5068848;28;20722;-77
2022/12/14 09:10:47;;;;;;;88.83;49.07;;;;;;;;;;5065929;28;20238;-77
2022/12/14 09:13:13;;;;;;;95.00;50.93;;;;;;;;;;5064461;28;20192;-77
2022/12/14 09:15:39;;;;;;;93.27;51.27;;;;;;;;;;5065779;28;20184;-77
2022/12/14 09:18:05;;;;;;;99.37;55.13;;;;;;;;;;5068330;28;20694;-77
2022/12/14 09:20:31;;;;;;;101.83;57.17;;;;;;;;;;5073496;28;20183;-78
2022/12/14 09:22:57;;;;;;;102.47;59.07;;;;;;;;;;5069116;28;20222;-77
2022/12/14 09:25:24;;;;;;;98.70;53.03;;;;;;;;;;5069186;28;20626;-78
2022/12/14 09:27:50;;;;;;;96.10;53.70;;;;;;;;;;5067229;28;20227;-77
2022/12/14 09:30:16;;;;;;;96.47;53.13;;;;;;;;;;5060232;28;20206;-77
2022/12/14 09:32:45;;;;;;;83.03;45.43;;;;;;;;;;5056852;28;20545;-77
2022/12/14 09:35:11;;;;;;;83.37;47.87;;;;;;;;;;5055370;28;20221;-77
2022/12/14 09:37:37;;;;;;;76.03;43.17;;;;;;;;;;5062253;28;20250;-77
2022/12/14 09:40:04;;;;;;;80.13;46.20;;;;;;;;;;5065726;28;20219;-77
2022/12/14 09:42:30;;;;;;;76.53;45.70;;;;;;;;;;5062559;28;20188;-77
2022/12/14 09:45:16;;;;;;;77.47;44.40;;;;;;;;;;5056083;28;20178;-77
2022/12/14 09:47:48;;;;;;;74.90;43.13;;;;;;;;;;5053072;28;20591;-77
2022/12/14 09:50:16;;;;;;;76.30;44.17;;;;;;;;;;5054411;28;20193;-77
2022/12/14 09:53:00;;;;;;;71.87;42.80;;;;;;;;;;5058955;28;20272;-76
2022/12/14 09:55:32;;;;;;;78.13;42.70;;;;;;;;;;5056280;28;20243;-77
2022/12/14 09:57:59;;;;;;;72.23;43.07;;;;;;;;;;5066627;28;20212;-77
2022/12/14 10:00:31;;;;;;;76.53;43.90;;;;;;;;;;5066933;28;20194;-77
2022/12/14 10:03:00;;;;;;;80.13;44.23;;;;;;;;;;5050762;28;20227;-77
2022/12/14 10:05:41;;;;;;;73.07;43.37;;;;;;;;;;5065724;28;20673;-77
2022/12/14 10:08:10;;;;;;;71.83;41.07;;;;;;;;;;5066824;28;20970;-77
2022/12/14 10:10:42;;;;;;;77.43;41.43;;;;;;;;;;5054368;28;20215;-77
2022/12/14 10:13:11;;;;;;;77.50;44.03;;;;;;;;;;5056644;28;20211;-77
2022/12/14 10:15:41;;;;;;;71.77;41.03;;;;;;;;;;5075335;28;20652;-76
2022/12/14 10:18:14;;;;;;;68.90;39.87;;;;;;;;;;5066510;28;20203;-77
2022/12/14 10:20:40;;;;;;;64.83;41.27;;;;;;;;;;5059891;28;20173;-77
2022/12/14 10:23:12;;;;;;;74.27;43.37;;;;;;;;;;5068629;28;20193;-77
2022/12/14 10:25:39;;;;;;;71.47;42.97;;;;;;;;;;5066075;28;20209;-77
2022/12/14 10:28:17;;;;;;;66.43;40.77;;;;;;;;;;5052704;28;20251;-77
2022/12/14 10:30:44;;;;;;;69.93;42.73;;;;;;;;;;5053714;28;20209;-77
2022/12/14 10:33:20;;;;;;;74.67;43.53;;;;;;;;;;5065895;28;20185;-77
2022/12/14 10:35:58;;;;;;;72.23;44.13;;;;;;;;;;5065857;28;20221;-77
2022/12/14 10:38:24;;;;;;;69.13;42.93;;;;;;;;;;5067765;28;20205;-77
2022/12/14 10:40:52;;;;;;;74.67;43.93;;;;;;;;;;5068176;28;20201;-78
2022/12/14 10:43:29;;;;;;;78.43;42.67;;;;;;;;;;5064774;28;20235;-77
2022/12/14 10:46:14;;;;;;;70.17;42.30;;;;;;;;;;5053866;28;20232;-77
2022/12/14 10:49:00;;;;;;;71.63;42.77;;;;;;;;;;5052332;28;20239;-78
2022/12/14 10:51:36;;;;;;;67.53;41.30;;;;;;;;;;5051438;28;20178;-78
2022/12/14 10:54:02;;;;;;;72.33;41.63;;;;;;;;;;5069747;28;20176;-78
2022/12/14 10:56:30;;;;;;;76.03;43.20;;;;;;;;;;5066807;28;20232;-78
2022/12/14 10:59:22;;;;;;;76.90;43.43;;;;;;;;;;5061556;28;20209;-77
2022/12/14 11:01:51;;;;;;;75.70;43.43;;;;;;;;;;5073675;28;20351;-77
2022/12/14 11:04:28;;;;;;;75.10;42.90;;;;;;;;;;5052236;28;20378;-77
2022/12/14 11:06:55;;;;;;;73.90;44.10;;;;;;;;;;5055000;28;20185;-77
2022/12/14 11:09:22;;;;;;;71.77;42.50;;;;;;;;;;5068943;28;20188;-78
2022/12/14 11:11:48;;;;;;;70.10;42.20;;;;;;;;;;5055192;28;20260;-77
2022/12/14 11:14:17;;;;;;;69.97;42.20;;;;;;;;;;5066512;28;20180;-77
2022/12/14 11:16:43;;;;;;;80.50;42.30;;;;;;;;;;5074868;28;20653;-78
2022/12/14 11:19:17;;;;;;;73.03;41.10;;;;;;;;;;5066185;28;20220;-78
2022/12/14 11:21:43;;;;;;;75.13;42.87;;;;;;;;;;5059573;28;20654;-78
2022/12/14 11:24:21;;;;;;;70.93;41.83;;;;;;;;;;5068066;28;20174;-77
2022/12/14 11:26:47;;;;;;;72.33;41.13;;;;;;;;;;5057565;28;20205;-78
2022/12/14 11:29:17;;;;;;;67.67;40.20;;;;;;;;;;5058563;28;20658;-78
2022/12/14 11:31:47;;;;;;;66.47;41.20;;;;;;;;;;5060168;28;20178;-78
2022/12/14 11:34:33;;;;;;;66.30;39.87;;;;;;;;;;5055217;28;20710;-78
2022/12/14 11:37:13;;;;;;;65.53;37.73;;;;;;;;;;5085526;28;20189;-78
2022/12/14 11:39:41;;;;;;;69.03;39.30;;;;;;;;;;5069390;28;20216;-78
2022/12/14 11:42:13;;;;;;;63.83;38.90;;;;;;;;;;5085521;28;20268;-78
2022/12/14 11:44:39;;;;;;;66.23;39.67;;;;;;;;;;5056248;28;20189;-78
2022/12/14 11:47:07;;;;;;;64.30;39.93;;;;;;;;;;5065456;28;20185;-79
2022/12/14 11:49:39;;;;;;;63.47;40.10;;;;;;;;;;5067573;28;20253;-79
2022/12/14 11:52:05;;;;;;;63.27;38.13;;;;;;;;;;5070449;28;20205;-78
2022/12/14 11:54:32;;;;;;;68.43;40.10;;;;;;;;;;5070574;28;20184;-78
2022/12/14 11:57:03;;;;;;;58.77;37.07;;;;;;;;;;5052697;28;20174;-78
2022/12/14 11:59:32;;;;;;;61.90;36.50;;;;;;;;;;5069034;28;20197;-78
2022/12/14 12:02:07;;;;;;;57.70;36.20;;;;;;;;;;5064064;28;20209;-79
2022/12/14 12:04:38;;;;;;;57.70;34.47;;;;;;;;;;5065989;28;20223;-79
2022/12/14 12:07:22;;;;;;;54.87;34.93;;;;;;;;;;5055603;28;20177;-80
2022/12/14 12:09:48;;;;;;;54.87;31.30;;;;;;;;;;5070702;28;20654;-78
2022/12/14 12:12:21;;;;;;;51.10;32.27;;;;;;;;;;5057126;28;20183;-77
2022/12/14 12:14:52;;;;;;;53.47;31.27;;;;;;;;;;5072840;28;20447;-79
2022/12/14 12:17:19;;;;;;;48.17;29.33;;;;;;;;;;5073995;28;20189;-78
2022/12/14 12:19:46;;;;;;;52.47;29.50;;;;;;;;;;5070799;28;20295;-78
2022/12/14 12:22:13;;;;;;;49.63;29.70;;;;;;;;;;5067600;28;20189;-78
2022/12/14 12:24:46;;;;;;;43.43;28.27;;;;;;;;;;5068995;28;20660;-78
2022/12/14 12:27:13;;;;;;;46.70;31.17;;;;;;;;;;5071088;28;20174;-79
2022/12/14 12:29:48;;;;;;;73.03;42.27;;;;;;;;;;5058213;28;20185;-79
2022/12/14 12:32:14;;;;;;;57.90;37.33;;;;;;;;;;5060917;28;20189;-78
2022/12/14 12:34:46;;;;;;;57.77;36.63;;;;;;;;;;5055403;28;20229;-79
2022/12/14 12:37:18;;;;;;;58.40;36.80;;;;;;;;;;5058104;28;20181;-79
2022/12/14 12:39:45;;;;;;;53.37;32.73;;;;;;;;;;5067998;28;20206;-78
2022/12/14 12:42:23;;;;;;;46.23;29.83;;;;;;;;;;5087740;28;20656;-79
2022/12/14 12:44:54;;;;;;;49.90;31.63;;;;;;;;;;5057813;28;21014;-78
2022/12/14 12:47:27;;;;;;;54.70;33.20;;;;;;;;;;5061344;28;20188;-79
2022/12/14 12:49:54;;;;;;;50.70;32.63;;;;;;;;;;5054097;28;20213;-79
2022/12/14 12:52:26;;;;;;;56.10;35.13;;;;;;;;;;5055345;28;20201;-79
2022/12/14 12:54:55;;;;;;;60.70;35.43;;;;;;;;;;5060656;28;20262;-78
2022/12/14 12:57:22;;;;;;;59.03;34.10;;;;;;;;;;5067238;28;20170;-79
2022/12/14 12:59:49;;;;;;;55.93;33.03;;;;;;;;;;5057328;28;20213;-79
2022/12/14 13:02:35;;;;;;;54.97;33.73;;;;;;;;;;5062898;28;20197;-79
2022/12/14 13:05:04;;;;;;;56.93;35.47;;;;;;;;;;5062835;28;20185;-79
2022/12/14 13:07:39;;;;;;;61.90;35.70;;;;;;;;;;5052571;28;20650;-79
2022/12/14 13:10:13;;;;;;;55.97;34.90;;;;;;;;;;5053640;28;20224;-79
2022/12/14 13:12:43;;;;;;;55.53;33.20;;;;;;;;;;5068252;28;20260;-79
2022/12/14 13:15:35;;;;;;;64.07;36.90;;;;;;;;;;5072407;28;20177;-79
2022/12/14 13:18:04;;;;;;;58.77;35.73;;;;;;;;;;5072182;28;20182;-79
2022/12/14 13:20:31;;;;;;;61.67;35.70;;;;;;;;;;5067239;28;20238;-79
2022/12/14 13:22:58;;;;;;;62.93;36.80;;;;;;;;;;5066076;28;20201;-79
2022/12/14 13:25:27;;;;;;;66.23;36.40;;;;;;;;;;5058358;28;20587;-79
2022/12/14 13:28:00;;;;;;;62.30;34.80;;;;;;;;;;5052411;28;20266;-79
2022/12/14 13:30:26;;;;;;;60.43;34.90;;;;;;;;;;5065768;28;20172;-79
2022/12/14 13:33:11;;;;;;;59.10;34.77;;;;;;;;;;5058358;28;20177;-80
2022/12/14 13:36:00;;;;;;;60.17;36.13;;;;;;;;;;5056428;28;20249;-78
2022/12/14 13:38:42;;;;;;;62.30;34.60;;;;;;;;;;5060221;28;20213;-78
2022/12/14 13:41:17;;;;;;;59.27;36.37;;;;;;;;;;5061253;28;20197;-79
2022/12/14 13:43:50;;;;;;;60.93;36.80;;;;;;;;;;5066255;28;20238;-79
2022/12/14 13:46:20;;;;;;;57.40;34.13;;;;;;;;;;5054042;28;20197;-79
2022/12/14 13:48:49;;;;;;;61.83;35.70;;;;;;;;;;5066821;28;20900;-78
2022/12/14 13:51:23;;;;;;;64.77;37.13;;;;;;;;;;5051064;28;20192;-79
2022/12/14 13:53:53;;;;;;;61.60;37.33;;;;;;;;;;5065075;28;20660;-79
2022/12/14 13:56:24;;;;;;;60.60;36.20;;;;;;;;;;5063315;28;20187;-79
2022/12/14 13:58:51;;;;;;;61.77;38.30;;;;;;;;;;5068688;28;20197;-78
2022/12/14 14:01:36;;;;;;;69.57;39.23;;;;;;;;;;5066912;28;20259;-79
2022/12/14 14:04:14;;;;;;;64.70;38.87;;;;;;;;;;5052397;28;20871;-79
2022/12/14 14:06:41;;;;;;;64.67;38.60;;;;;;;;;;5067738;28;20174;-79
2022/12/14 14:09:25;;;;;;;60.87;37.63;;;;;;;;;;5069607;28;20187;-79
2022/12/14 14:11:55;;;;;;;61.33;35.80;;;;;;;;;;5053564;28;20662;-80
2022/12/14 14:14:42;;;;;;;67.40;40.17;;;;;;;;;;5066720;28;20188;-79
2022/12/14 14:17:16;;;;;;;62.07;38.07;;;;;;;;;;5073298;28;20192;-79
2022/12/14 14:19:42;;;;;;;64.97;39.13;;;;;;;;;;5067206;28;20717;-79
2022/12/14 14:22:08;;;;;;;74.30;40.27;;;;;;;;;;5067988;28;20239;-79
2022/12/14 14:24:56;;;;;;;70.97;38.40;;;;;;;;;;5053843;28;20220;-79
2022/12/14 14:27:24;;;;;;;60.80;37.03;;;;;;;;;;5086611;28;20256;-78
2022/12/14 14:29:50;;;;;;;63.27;37.03;;;;;;;;;;5068925;28;20187;-79
2022/12/14 14:32:43;;;;;;;63.47;37.70;;;;;;;;;;5059598;28;20181;-79
2022/12/14 14:35:26;;;;;;;65.80;38.67;;;;;;;;;;5055156;28;20223;-78
2022/12/14 14:37:59;;;;;;;65.07;37.27;;;;;;;;;;5053038;28;20196;-79
2022/12/14 14:40:26;;;;;;;63.30;37.60;;;;;;;;;;5056452;28;20189;-78
2022/12/14 14:43:15;;;;;;;61.07;38.10;;;;;;;;;;5067008;28;20243;-80
2022/12/14 14:45:47;;;;;;;71.33;40.20;;;;;;;;;;5067116;28;20541;-78